createdAt,value
2018-06-13T00:01:44.459Z,15.37
2018-06-13T00:03:49.082Z,15.77
2018-06-13T00:05:53.754Z,15.47
2018-06-13T00:07:58.343Z,15.73
2018-06-13T00:10:03.654Z,16.30
2018-06-13T00:12:08.320Z,15.30
2018-06-13T00:14:12.919Z,15.60
2018-06-13T00:16:17.546Z,15.27
2018-06-13T00:18:22.182Z,15.47
2018-06-13T00:20:26.822Z,15.60
2018-06-13T00:22:31.564Z,17.50
2018-06-13T00:24:36.199Z,16.07
2018-06-13T00:26:40.976Z,14.40
2018-06-13T00:28:45.608Z,16.47
2018-06-13T00:30:50.451Z,15.00
2018-06-13T00:32:55.034Z,15.30
2018-06-13T00:34:59.918Z,16.70
2018-06-13T00:37:04.544Z,16.23
2018-06-13T00:39:09.389Z,16.00
2018-06-13T00:41:14.014Z,14.60
2018-06-13T00:43:18.670Z,15.33
2018-06-13T00:45:23.399Z,15.87
2018-06-13T00:47:28.086Z,16.17
2018-06-13T00:49:32.244Z,16.07
2018-06-13T00:51:38.006Z,15.13
2018-06-13T00:53:44.161Z,15.17
2018-06-13T00:55:59.816Z,16.13
2018-06-13T00:58:04.388Z,14.63
2018-06-13T01:00:09.096Z,15.33
2018-06-13T01:02:13.707Z,15.20
2018-06-13T01:04:18.419Z,15.20
2018-06-13T01:06:24.065Z,15.50
2018-06-13T01:08:28.709Z,16.17
2018-06-13T01:10:33.297Z,15.40
2018-06-13T01:12:38.007Z,16.43
2018-06-13T01:14:42.607Z,15.90
2018-06-13T01:16:47.343Z,14.30
2018-06-13T01:18:51.900Z,14.43
2018-06-13T01:20:56.698Z,14.47
2018-06-13T01:23:03.388Z,16.07
2018-06-13T01:25:08.163Z,15.13
2018-06-13T01:27:12.735Z,15.00
2018-06-13T01:29:17.429Z,14.97
2018-06-13T01:31:22.032Z,15.57
2018-06-13T01:33:26.706Z,15.77
2018-06-13T01:35:31.396Z,15.60
2018-06-13T01:37:36.908Z,15.80
2018-06-13T01:39:41.663Z,16.60
2018-06-13T01:41:46.297Z,16.00
2018-06-13T01:43:51.067Z,14.83
2018-06-13T01:45:55.710Z,15.87
2018-06-13T01:48:00.428Z,16.90
2018-06-13T01:50:05.011Z,15.53
2018-06-13T01:52:09.630Z,17.20
2018-06-13T01:54:14.216Z,17.00
2018-06-13T01:56:19.025Z,16.40
2018-06-13T01:58:23.660Z,16.50
2018-06-13T02:00:28.546Z,16.07
2018-06-13T02:02:33.168Z,17.10
2018-06-13T02:04:37.963Z,17.20
2018-06-13T02:06:42.594Z,16.90
2018-06-13T02:08:47.236Z,17.37
2018-06-13T02:10:51.951Z,17.40
2018-06-13T02:12:56.607Z,17.10
2018-06-13T02:15:01.209Z,18.33
2018-06-13T02:17:06.048Z,15.23
2018-06-13T02:19:10.624Z,17.77
2018-06-13T02:21:15.371Z,18.37
2018-06-13T02:23:19.973Z,17.03
2018-06-13T02:25:24.646Z,16.80
2018-06-13T02:27:29.267Z,17.57
2018-06-13T02:29:34.035Z,18.37
2018-06-13T02:31:38.682Z,19.33
2018-06-13T02:33:43.384Z,17.60
2018-06-13T02:35:48.004Z,18.30
2018-06-13T02:37:52.808Z,18.90
2018-06-13T02:39:57.421Z,18.57
2018-06-13T02:42:02.178Z,18.67
2018-06-13T02:44:07.135Z,19.87
2018-06-13T02:46:11.845Z,17.57
2018-06-13T02:48:16.438Z,19.23
2018-06-13T02:50:21.101Z,20.00
2018-06-13T02:52:25.665Z,20.83
2018-06-13T02:54:30.348Z,20.00
2018-06-13T02:56:34.977Z,19.57
2018-06-13T02:58:39.697Z,20.60
2018-06-13T03:00:44.361Z,19.53
2018-06-13T03:02:49.019Z,19.83
2018-06-13T03:04:53.601Z,19.83
2018-06-13T03:06:58.297Z,18.97
2018-06-13T03:09:02.896Z,19.33
2018-06-13T03:11:07.631Z,18.67
2018-06-13T03:13:12.185Z,19.57
2018-06-13T03:15:16.913Z,19.87
2018-06-13T03:17:21.503Z,21.13
2018-06-13T03:19:26.173Z,22.67
2018-06-13T03:21:30.814Z,22.40
2018-06-13T03:23:35.538Z,21.50
2018-06-13T03:25:40.144Z,22.00
2018-06-13T03:27:44.824Z,21.40
2018-06-13T03:29:49.451Z,21.20
2018-06-13T03:31:54.315Z,22.20
2018-06-13T03:33:58.909Z,21.87
2018-06-13T03:36:03.715Z,21.67
2018-06-13T03:38:08.291Z,22.73
2018-06-13T03:40:12.894Z,21.30
2018-06-13T03:42:17.592Z,22.93
2018-06-13T03:44:22.243Z,22.07
2018-06-13T03:46:26.909Z,23.27
2018-06-13T03:48:32.192Z,23.87
2018-06-13T03:50:36.930Z,23.57
2018-06-13T03:52:41.576Z,22.80
2018-06-13T03:54:46.343Z,23.47
2018-06-13T03:56:50.996Z,23.77
2018-06-13T03:58:55.599Z,21.60
2018-06-13T04:01:00.189Z,24.23
2018-06-13T04:03:04.871Z,22.73
2018-06-13T04:05:09.453Z,22.97
2018-06-13T04:07:14.457Z,25.13
2018-06-13T04:09:19.147Z,23.77
2018-06-13T04:11:23.436Z,22.77
2018-06-13T04:13:28.481Z,23.67
2018-06-13T04:15:33.327Z,23.83
2018-06-13T04:17:38.022Z,21.63
2018-06-13T04:19:42.729Z,22.97
2018-06-13T04:21:47.328Z,24.47
2018-06-13T04:23:52.197Z,24.43
2018-06-13T04:25:57.334Z,23.60
2018-06-13T04:28:02.313Z,23.00
2018-06-13T04:30:07.211Z,25.17
2018-06-13T04:32:11.984Z,26.30
2018-06-13T04:34:16.700Z,25.53
2018-06-13T04:36:21.524Z,25.00
2018-06-13T04:38:26.295Z,25.47
2018-06-13T04:40:31.418Z,25.70
2018-06-13T04:42:36.513Z,25.73
2018-06-13T04:44:43.253Z,27.10
2018-06-13T04:46:48.944Z,24.87
2018-06-13T04:48:54.403Z,25.70
2018-06-13T04:50:59.627Z,24.50
2018-06-13T04:53:04.516Z,27.63
2018-06-13T04:55:09.374Z,24.70
2018-06-13T04:57:14.094Z,24.73
2018-06-13T04:59:18.768Z,23.17
2018-06-13T05:01:23.466Z,24.17
2018-06-13T05:03:28.087Z,23.63
2018-06-13T05:05:32.741Z,24.57
2018-06-13T05:07:37.467Z,23.53
2018-06-13T05:09:42.071Z,24.17
2018-06-13T05:11:46.829Z,24.57
2018-06-13T05:13:51.559Z,24.20
2018-06-13T05:15:56.315Z,22.27
2018-06-13T05:18:01.157Z,19.90
2018-06-13T05:20:06.872Z,20.77
2018-06-13T05:22:11.560Z,18.80
2018-06-13T05:24:16.371Z,17.10
2018-06-13T05:26:21.041Z,15.13
2018-06-13T05:28:25.688Z,13.50
2018-06-13T05:30:30.388Z,12.90
2018-06-13T05:32:35.109Z,10.93
2018-06-13T05:34:39.758Z,13.30
2018-06-13T05:36:44.437Z,10.80
2018-06-13T05:38:49.022Z,9.30
2018-06-13T05:40:53.788Z,10.20
2018-06-13T05:42:58.588Z,9.40
2018-06-13T05:45:03.163Z,8.87
2018-06-13T05:47:07.700Z,8.80
2018-06-13T05:49:12.374Z,8.30
2018-06-13T05:51:17.174Z,8.57
2018-06-13T05:53:21.828Z,8.73
2018-06-13T05:55:26.404Z,8.50
2018-06-13T05:57:31.156Z,8.17
2018-06-13T05:59:35.840Z,8.57
2018-06-13T06:01:40.503Z,8.47
2018-06-13T06:03:45.312Z,8.50
2018-06-13T06:05:49.977Z,9.67
2018-06-13T06:07:54.802Z,8.83
2018-06-13T06:09:59.460Z,9.00
2018-06-13T06:12:04.115Z,8.73
2018-06-13T06:14:08.814Z,7.27
2018-06-13T06:16:14.053Z,7.50
2018-06-13T06:18:25.124Z,7.53
2018-06-13T06:20:29.756Z,8.07
2018-06-13T06:22:34.430Z,7.77
2018-06-13T06:24:39.152Z,8.50
2018-06-13T06:26:43.829Z,8.37
2018-06-13T06:28:48.463Z,8.43
2018-06-13T06:30:53.099Z,7.20
2018-06-13T06:32:57.904Z,8.53
2018-06-13T06:35:02.641Z,8.37
2018-06-13T06:37:07.380Z,8.60
2018-06-13T06:39:12.166Z,8.90
2018-06-13T06:41:16.854Z,8.80
2018-06-13T06:43:21.565Z,8.40
2018-06-13T06:45:26.257Z,7.20
2018-06-13T06:47:31.016Z,8.03
2018-06-13T06:49:35.728Z,8.40
2018-06-13T06:51:40.851Z,7.67
2018-06-13T06:53:45.444Z,6.97
2018-06-13T06:55:50.161Z,7.00
2018-06-13T06:57:54.849Z,6.77
2018-06-13T06:59:59.612Z,5.47
2018-06-13T07:02:04.246Z,6.37
2018-06-13T07:04:09.026Z,7.13
2018-06-13T07:06:13.682Z,6.00
2018-06-13T07:08:18.406Z,5.83
2018-06-13T07:10:23.052Z,5.60
2018-06-13T07:12:27.665Z,5.13
2018-06-13T07:14:31.913Z,6.07
2018-06-13T07:16:36.523Z,5.53
2018-06-13T07:18:41.212Z,5.40
2018-06-13T07:20:46.052Z,4.90
2018-06-13T07:22:50.665Z,4.90
2018-06-13T07:24:55.407Z,6.10
2018-06-13T07:27:00.025Z,6.70
2018-06-13T07:29:04.794Z,5.93
2018-06-13T07:31:09.439Z,5.93
2018-06-13T07:33:14.125Z,5.60
2018-06-13T07:35:18.777Z,5.67
2018-06-13T07:37:23.471Z,5.50
2018-06-13T07:39:28.179Z,4.70
2018-06-13T07:41:32.862Z,4.63
2018-06-13T07:43:37.493Z,4.87
2018-06-13T07:45:42.218Z,3.90
2018-06-13T07:47:46.790Z,3.93
2018-06-13T07:49:51.609Z,3.60
2018-06-13T07:51:56.285Z,3.53
2018-06-13T07:54:00.989Z,3.50
2018-06-13T07:56:05.815Z,4.10
2018-06-13T07:58:10.613Z,3.70
2018-06-13T08:00:15.328Z,3.60
2018-06-13T08:02:20.030Z,4.00
2018-06-13T08:04:24.863Z,3.50
2018-06-13T08:06:30.695Z,3.33
2018-06-13T08:08:35.398Z,3.57
2018-06-13T08:10:40.233Z,2.90
2018-06-13T08:12:44.839Z,3.30
2018-06-13T08:14:49.618Z,3.30
2018-06-13T08:16:54.393Z,2.67
2018-06-13T08:18:59.166Z,3.33
2018-06-13T08:21:03.941Z,3.40
2018-06-13T08:23:08.722Z,3.00
2018-06-13T08:25:13.471Z,3.40
2018-06-13T08:27:17.746Z,2.83
2018-06-13T08:29:22.969Z,3.53
2018-06-13T08:31:27.719Z,3.10
2018-06-13T08:33:32.441Z,3.20
2018-06-13T08:35:37.292Z,2.90
2018-06-13T08:37:41.996Z,3.10
2018-06-13T08:39:46.630Z,3.40
2018-06-13T08:41:51.377Z,3.00
2018-06-13T08:43:56.021Z,3.10
2018-06-13T08:46:00.723Z,3.20
2018-06-13T08:48:05.435Z,3.33
2018-06-13T08:50:10.010Z,3.10
2018-06-13T08:52:14.258Z,4.30
2018-06-13T08:54:18.701Z,7.10
2018-06-13T08:56:23.387Z,7.30
2018-06-13T08:58:28.056Z,8.73
2018-06-13T09:00:32.739Z,8.03
2018-06-13T09:02:37.589Z,8.77
2018-06-13T09:04:42.302Z,8.73
2018-06-13T09:06:47.161Z,8.33
2018-06-13T09:08:51.946Z,8.60
2018-06-13T09:10:56.724Z,8.70
2018-06-13T09:13:01.398Z,8.77
2018-06-13T09:15:06.228Z,8.87
2018-06-13T09:17:10.917Z,9.63
2018-06-13T09:19:15.587Z,8.57
2018-06-13T09:21:20.247Z,9.10
2018-06-13T09:23:24.875Z,9.23
2018-06-13T09:25:29.541Z,9.73
2018-06-13T09:27:34.318Z,8.23
2018-06-13T09:29:38.901Z,8.03
2018-06-13T09:31:43.639Z,7.70
2018-06-13T09:33:48.260Z,7.70
2018-06-13T09:35:54.141Z,7.10
2018-06-13T09:37:58.786Z,6.83
2018-06-13T09:40:04.581Z,5.53
2018-06-13T09:42:09.260Z,5.87
2018-06-13T09:44:14.013Z,5.53
2018-06-13T09:46:18.667Z,6.23
2018-06-13T09:48:23.321Z,5.73
2018-06-13T09:50:28.026Z,5.97
2018-06-13T09:52:32.729Z,5.47
2018-06-13T09:54:37.440Z,5.20
2018-06-13T09:56:42.107Z,4.80
2018-06-13T09:58:52.070Z,4.07
2018-06-13T10:01:01.772Z,4.40
2018-06-13T10:03:06.499Z,4.70
2018-06-13T10:05:11.210Z,3.77
2018-06-13T10:07:15.896Z,3.77
2018-06-13T10:09:20.564Z,3.17
2018-06-13T10:11:25.189Z,3.60
2018-06-13T10:13:29.874Z,3.60
2018-06-13T10:15:34.443Z,4.20
2018-06-13T10:17:39.133Z,4.23
2018-06-13T10:19:43.708Z,4.50
2018-06-13T10:21:48.293Z,4.23
2018-06-13T10:23:52.922Z,4.60
2018-06-13T10:25:57.535Z,3.73
2018-06-13T10:28:02.258Z,4.00
2018-06-13T10:30:07.060Z,3.93
2018-06-13T10:32:11.720Z,4.40
2018-06-13T10:34:16.427Z,4.80
2018-06-13T10:36:20.948Z,4.20
2018-06-13T10:38:25.540Z,4.43
2018-06-13T10:40:30.188Z,4.80
2018-06-13T10:42:34.912Z,5.57
2018-06-13T10:44:39.522Z,4.90
2018-06-13T10:46:44.134Z,4.50
2018-06-13T10:48:48.769Z,5.30
2018-06-13T10:50:53.482Z,5.20
2018-06-13T10:52:58.107Z,5.17
2018-06-13T10:55:02.891Z,5.70
2018-06-13T10:57:07.566Z,5.27
2018-06-13T10:59:12.285Z,4.77
2018-06-13T11:01:16.818Z,5.20
2018-06-13T11:03:21.563Z,5.10
2018-06-13T11:05:26.184Z,5.40
2018-06-13T11:07:30.975Z,5.70
2018-06-13T11:09:35.744Z,5.43
2018-06-13T11:11:40.342Z,5.60
2018-06-13T11:13:45.196Z,5.20
2018-06-13T11:15:49.805Z,5.40
2018-06-13T11:17:54.691Z,5.30
2018-06-13T11:19:59.387Z,6.50
2018-06-13T11:22:03.739Z,5.03
2018-06-13T11:24:08.543Z,5.50
2018-06-13T11:26:13.305Z,4.57
2018-06-13T11:28:18.065Z,5.00
2018-06-13T11:30:22.867Z,4.73
2018-06-13T11:32:27.571Z,4.70
2018-06-13T11:34:32.988Z,4.90
2018-06-13T11:36:38.180Z,4.70
2018-06-13T11:38:42.861Z,4.83
2018-06-13T11:40:47.562Z,4.80
2018-06-13T11:42:52.426Z,4.20
2018-06-13T11:44:57.064Z,4.50
2018-06-13T11:47:01.785Z,5.00
2018-06-13T11:49:06.955Z,4.90
2018-06-13T11:51:11.858Z,4.10
2018-06-13T11:53:16.584Z,4.87
2018-06-13T11:55:21.826Z,4.33
2018-06-13T11:57:26.543Z,4.53
2018-06-13T11:59:31.326Z,4.00
2018-06-13T12:01:36.162Z,3.90
2018-06-13T12:03:51.259Z,4.23
2018-06-13T12:05:56.347Z,3.40
2018-06-13T12:08:01.519Z,4.20
2018-06-13T12:10:07.160Z,3.43
2018-06-13T12:12:11.907Z,3.33
2018-06-13T12:14:16.138Z,4.03
2018-06-13T12:16:20.722Z,4.60
2018-06-13T12:18:26.081Z,4.87
2018-06-13T12:20:31.355Z,4.73
2018-06-13T12:22:36.602Z,5.10
2018-06-13T12:24:42.802Z,5.10
2018-06-13T12:26:47.747Z,4.83
2018-06-13T12:28:52.679Z,5.30
2018-06-13T12:30:57.390Z,4.40
2018-06-13T12:33:02.136Z,4.73
2018-06-13T12:35:07.054Z,4.83
2018-06-13T12:37:11.916Z,4.97
2018-06-13T12:39:16.935Z,5.07
2018-06-13T12:41:22.748Z,5.10
2018-06-13T12:43:27.406Z,4.60
2018-06-13T12:45:32.165Z,4.37
2018-06-13T12:47:36.928Z,4.10
2018-06-13T12:49:41.735Z,4.00
2018-06-13T12:51:46.328Z,4.23
2018-06-13T12:53:51.102Z,3.63
2018-06-13T12:55:55.708Z,3.80
2018-06-13T12:58:00.366Z,4.10
2018-06-13T13:00:05.556Z,3.67
2018-06-13T13:02:10.562Z,3.23
2018-06-13T13:04:15.383Z,3.23
2018-06-13T13:06:20.000Z,3.40
2018-06-13T13:08:24.736Z,3.10
2018-06-13T13:10:29.383Z,3.70
2018-06-13T13:12:34.952Z,3.43
2018-06-13T13:14:39.875Z,3.60
2018-06-13T13:16:44.589Z,3.43
2018-06-13T13:18:49.494Z,3.50
2018-06-13T13:20:54.012Z,3.20
2018-06-13T13:22:58.654Z,3.20
2018-06-13T13:25:03.396Z,3.73
2018-06-13T13:27:08.085Z,3.63
2018-06-13T13:29:12.857Z,3.17
2018-06-13T13:31:17.468Z,3.30
2018-06-13T13:33:22.132Z,2.97
2018-06-13T13:35:26.943Z,3.30
2018-06-13T13:37:31.603Z,3.30
2018-06-13T13:39:36.400Z,3.27
2018-06-13T13:41:41.419Z,3.00
2018-06-13T13:43:46.023Z,2.90
2018-06-13T13:45:50.685Z,3.40
2018-06-13T13:47:55.357Z,3.57
2018-06-13T13:50:00.125Z,3.40
2018-06-13T13:52:04.928Z,3.30
2018-06-13T13:54:09.902Z,3.20
2018-06-13T13:56:15.194Z,3.17
2018-06-13T13:58:19.853Z,4.20
2018-06-13T14:00:24.528Z,3.53
2018-06-13T14:02:29.140Z,3.57
2018-06-13T14:04:33.944Z,3.53
2018-06-13T14:06:38.564Z,4.30
2018-06-13T14:08:43.207Z,4.43
2018-06-13T14:10:47.901Z,3.90
2018-06-13T14:12:52.536Z,4.10
2018-06-13T14:14:57.253Z,4.50
2018-06-13T14:17:01.908Z,4.50
2018-06-13T14:19:06.788Z,4.20
2018-06-13T14:21:11.767Z,5.03
2018-06-13T14:23:16.885Z,4.20
2018-06-13T14:25:21.521Z,4.70
2018-06-13T14:27:26.250Z,4.67
2018-06-13T14:29:30.975Z,5.10
2018-06-13T14:31:35.668Z,5.20
2018-06-13T14:33:40.862Z,4.73
2018-06-13T14:35:45.505Z,4.87
2018-06-13T14:37:50.738Z,4.90
2018-06-13T14:39:55.552Z,5.10
2018-06-13T14:42:01.960Z,4.33
2018-06-13T14:44:10.438Z,4.27
2018-06-13T14:46:20.111Z,5.13
2018-06-13T14:48:28.752Z,4.80
2018-06-13T14:50:37.123Z,5.30
2018-06-13T14:52:46.166Z,4.70
2018-06-13T14:54:56.231Z,4.17
2018-06-13T14:57:03.763Z,4.90
2018-06-13T14:59:13.524Z,4.50
2018-06-13T15:01:21.434Z,4.60
2018-06-13T15:05:46.143Z,4.60
2018-06-13T15:07:55.288Z,5.07
2018-06-13T15:10:03.547Z,5.23
2018-06-13T15:12:08.390Z,4.80
2018-06-13T15:14:13.099Z,5.10
2018-06-13T15:16:17.876Z,4.83
2018-06-13T15:18:51.280Z,5.43
2018-06-13T15:20:56.458Z,5.80
2018-06-13T15:23:01.070Z,5.03
2018-06-13T15:25:05.808Z,5.27
2018-06-13T15:27:23.719Z,5.47
2018-06-13T15:29:31.923Z,5.37
2018-06-13T15:31:36.662Z,5.20
2018-06-13T15:33:41.904Z,5.03
2018-06-13T15:35:46.750Z,5.70
2018-06-13T15:37:52.012Z,5.17
2018-06-13T15:39:57.756Z,5.87
2018-06-13T15:42:02.258Z,6.60
2018-06-13T15:44:07.187Z,5.83
2018-06-13T15:46:12.057Z,6.23
2018-06-13T15:48:17.125Z,6.20
2018-06-13T15:50:22.991Z,7.10
2018-06-13T15:52:28.061Z,6.50
2018-06-13T15:54:33.028Z,7.00
2018-06-13T15:56:37.967Z,6.13
2018-06-13T15:58:42.655Z,6.17
2018-06-13T16:00:47.508Z,7.03
2018-06-13T16:02:52.231Z,6.40
2018-06-13T16:04:57.199Z,6.70
2018-06-13T16:07:04.748Z,7.10
2018-06-13T16:09:18.411Z,8.00
2018-06-13T16:11:22.920Z,6.77
2018-06-13T16:13:27.609Z,7.20
2018-06-13T16:15:32.303Z,6.97
2018-06-13T16:17:37.145Z,7.57
2018-06-13T16:19:41.933Z,7.90
2018-06-13T16:21:46.609Z,7.00
2018-06-13T16:23:51.561Z,8.10
2018-06-13T16:25:57.063Z,8.33
2018-06-13T16:28:01.844Z,7.53
2018-06-13T16:30:07.081Z,8.70
2018-06-13T16:32:12.335Z,7.60
2018-06-13T16:34:17.199Z,7.87
2018-06-13T16:36:22.666Z,7.53
2018-06-13T16:38:28.991Z,8.10
2018-06-13T16:40:33.853Z,9.07
2018-06-13T16:42:38.819Z,8.40
2018-06-13T16:44:44.221Z,8.90
2018-06-13T16:46:49.033Z,7.77
2018-06-13T16:48:53.697Z,8.43
2018-06-13T16:51:09.619Z,8.47
2018-06-13T16:53:24.274Z,8.40
2018-06-13T16:55:29.072Z,7.90
2018-06-13T16:57:34.035Z,8.60
2018-06-13T16:59:38.689Z,8.10
2018-06-13T17:01:43.705Z,9.20
2018-06-13T17:03:48.336Z,8.80
2018-06-13T17:05:53.994Z,9.00
2018-06-13T17:07:58.780Z,9.33
2018-06-13T17:10:04.029Z,8.57
2018-06-13T17:12:16.129Z,9.07
2018-06-13T17:14:21.679Z,9.63
2018-06-13T17:16:26.416Z,9.17
2018-06-13T17:18:31.736Z,9.20
2018-06-13T17:20:36.435Z,9.40
2018-06-13T17:22:41.845Z,9.53
2018-06-13T17:24:46.594Z,10.30
2018-06-13T17:26:52.510Z,10.53
2018-06-13T17:28:57.320Z,9.70
2018-06-13T17:31:02.089Z,9.60
2018-06-13T17:33:07.087Z,9.13
2018-06-13T17:35:12.562Z,9.60
2018-06-13T17:37:18.296Z,10.67
2018-06-13T17:39:26.411Z,10.33
2018-06-13T17:41:31.510Z,10.33
2018-06-13T17:43:36.435Z,10.43
2018-06-13T17:45:41.220Z,10.67
2018-06-13T17:47:46.941Z,10.57
2018-06-13T17:49:51.897Z,10.00
2018-06-13T17:51:57.289Z,10.40
2018-06-13T17:54:20.590Z,10.07
2018-06-13T17:58:39.719Z,9.93
2018-06-13T18:00:45.291Z,9.80
2018-06-13T18:02:52.003Z,9.67
2018-06-13T18:04:56.894Z,10.90
2018-06-13T18:07:01.683Z,10.10
2018-06-13T18:09:08.944Z,10.03
2018-06-13T18:11:16.648Z,9.50
2018-06-13T18:13:26.764Z,9.70
2018-06-13T18:15:33.130Z,10.60
2018-06-13T18:17:44.156Z,8.67
2018-06-13T18:19:48.785Z,9.60
2018-06-13T18:21:53.558Z,9.60
2018-06-13T18:23:58.236Z,9.83
2018-06-13T18:26:03.014Z,10.17
2018-06-13T18:28:07.816Z,10.20
2018-06-13T18:30:12.631Z,10.70
2018-06-13T18:32:17.605Z,10.03
2018-06-13T18:34:22.645Z,10.20
2018-06-13T18:36:27.510Z,10.67
2018-06-13T18:38:32.834Z,10.20
2018-06-13T18:40:37.588Z,9.83
2018-06-13T18:42:42.535Z,10.10
2018-06-13T18:44:54.265Z,9.97
2018-06-13T18:46:59.312Z,9.07
2018-06-13T18:49:04.032Z,9.10
2018-06-13T18:51:09.163Z,8.23
2018-06-13T18:53:14.541Z,9.83
2018-06-13T18:55:19.622Z,9.27
2018-06-13T18:57:24.476Z,9.80
2018-06-13T18:59:29.242Z,9.73
2018-06-13T19:01:34.884Z,10.20
2018-06-13T19:03:39.604Z,9.03
2018-06-13T19:05:44.169Z,9.93
2018-06-13T19:07:48.941Z,9.87
2018-06-13T19:09:54.407Z,10.67
2018-06-13T19:11:59.204Z,9.80
2018-06-13T19:14:04.725Z,9.93
2018-06-13T19:16:09.857Z,9.40
2018-06-13T19:18:14.952Z,9.40
2018-06-13T19:20:24.248Z,8.33
2018-06-13T19:22:34.257Z,8.50
2018-06-13T19:24:40.506Z,9.10
2018-06-13T19:26:46.333Z,9.00
2018-06-13T19:28:52.057Z,8.80
2018-06-13T19:30:57.001Z,9.50
2018-06-13T19:33:01.704Z,10.07
2018-06-13T19:35:07.440Z,8.90
2018-06-13T19:37:12.369Z,8.60
2018-06-13T19:39:17.206Z,10.30
2018-06-13T19:41:22.243Z,9.60
2018-06-13T19:43:32.205Z,9.50
2018-06-13T19:45:36.863Z,9.10
2018-06-13T19:47:46.627Z,10.30
2018-06-13T19:49:52.493Z,10.17
2018-06-13T19:51:57.454Z,9.90
2018-06-13T19:54:19.092Z,11.00
2018-06-13T19:56:33.889Z,10.23
2018-06-13T19:58:40.234Z,9.57
2018-06-13T20:00:45.291Z,11.00
2018-06-13T20:02:56.832Z,10.20
2018-06-13T20:05:08.316Z,10.73
2018-06-13T20:07:16.587Z,10.40
2018-06-13T20:09:22.154Z,10.47
2018-06-13T20:11:30.191Z,10.40
2018-06-13T20:13:41.008Z,11.07
2018-06-13T20:15:51.011Z,11.03
2018-06-13T20:18:01.090Z,10.00
2018-06-13T20:20:08.791Z,11.00
2018-06-13T20:22:13.671Z,10.07
2018-06-13T20:24:18.571Z,10.13
2018-06-13T20:26:30.048Z,9.03
2018-06-13T20:28:40.232Z,10.40
2018-06-13T20:30:51.032Z,11.20
2018-06-13T20:32:55.835Z,12.60
2018-06-13T20:35:01.203Z,10.77
2018-06-13T20:37:07.306Z,10.83
2018-06-13T20:39:12.596Z,10.97
2018-06-13T20:41:17.887Z,10.23
2018-06-13T20:43:23.112Z,10.50
2018-06-13T20:45:27.716Z,10.30
2018-06-13T20:47:33.162Z,10.70
2018-06-13T20:49:38.013Z,10.43
2018-06-13T20:51:42.601Z,10.70
2018-06-13T20:53:47.184Z,10.43
2018-06-13T20:55:52.254Z,11.03
2018-06-13T20:58:02.285Z,10.70
2018-06-13T21:00:07.558Z,10.57
2018-06-13T21:02:12.965Z,10.63
2018-06-13T21:04:17.528Z,10.60
2018-06-13T21:06:22.312Z,10.40
2018-06-13T21:08:28.271Z,10.33
2018-06-13T21:10:33.299Z,10.10
2018-06-13T21:12:38.351Z,9.33
2018-06-13T21:14:44.981Z,10.40
2018-06-13T21:16:50.563Z,9.47
2018-06-13T21:18:55.574Z,10.13
2018-06-13T21:21:00.205Z,9.83
2018-06-13T21:23:06.315Z,10.00
2018-06-13T21:25:11.070Z,9.73
2018-06-13T21:27:16.175Z,9.90
2018-06-13T21:29:21.523Z,10.57
2018-06-13T21:31:26.213Z,10.87
2018-06-13T21:33:30.789Z,10.70
2018-06-13T21:35:36.131Z,9.70
2018-06-13T21:37:41.134Z,10.50
2018-06-13T21:39:46.344Z,10.50
2018-06-13T21:41:51.026Z,10.50
2018-06-13T21:43:56.687Z,10.60
2018-06-13T21:46:01.584Z,10.63
2018-06-13T21:48:06.383Z,10.03
2018-06-13T21:50:11.046Z,11.03
2018-06-13T21:52:15.804Z,10.67
2018-06-13T21:54:20.456Z,9.97
2018-06-13T21:56:25.220Z,9.87
2018-06-13T21:58:30.160Z,9.47
2018-06-13T22:00:34.806Z,10.60
2018-06-13T22:02:39.598Z,10.63
2018-06-13T22:04:45.559Z,10.17
2018-06-13T22:06:50.304Z,10.27
2018-06-13T22:08:55.322Z,11.00
2018-06-13T22:11:00.327Z,11.93
2018-06-13T22:13:06.203Z,12.43
2018-06-13T22:15:16.078Z,12.50
2018-06-13T22:17:20.832Z,11.77
2018-06-13T22:19:25.608Z,10.27
2018-06-13T22:21:30.284Z,9.90
2018-06-13T22:23:35.071Z,9.90
2018-06-13T22:25:39.643Z,10.73
2018-06-13T22:27:44.472Z,10.30
2018-06-13T22:29:49.195Z,10.40
2018-06-13T22:31:53.954Z,9.77
2018-06-13T22:33:58.693Z,10.10
2018-06-13T22:36:03.416Z,10.70
2018-06-13T22:38:08.091Z,10.90
2018-06-13T22:40:12.756Z,10.40
2018-06-13T22:42:17.359Z,11.47
2018-06-13T22:44:21.988Z,11.70
2018-06-13T22:46:26.738Z,11.50
2018-06-13T22:48:31.408Z,11.70
2018-06-13T22:50:36.156Z,11.77
2018-06-13T22:52:41.076Z,11.23
2018-06-13T22:54:45.711Z,11.03
2018-06-13T22:56:50.463Z,10.27
2018-06-13T22:58:55.106Z,11.37
2018-06-13T23:01:08.901Z,11.00
2018-06-13T23:03:13.483Z,11.87
2018-06-13T23:05:18.465Z,12.80
2018-06-13T23:07:23.061Z,12.60
2018-06-13T23:09:27.717Z,12.57
2018-06-13T23:11:32.266Z,12.77
2018-06-13T23:13:36.797Z,12.07
2018-06-13T23:15:41.898Z,13.00
2018-06-13T23:17:46.615Z,12.67
2018-06-13T23:19:50.767Z,12.03
2018-06-13T23:21:55.427Z,12.20
2018-06-13T23:24:00.038Z,10.90
2018-06-13T23:26:04.659Z,10.57
2018-06-13T23:28:09.299Z,11.03
2018-06-13T23:30:14.076Z,11.13
2018-06-13T23:32:18.812Z,13.23
2018-06-13T23:34:23.537Z,12.10
2018-06-13T23:36:28.364Z,12.13
2018-06-13T23:38:33.026Z,11.50
2018-06-13T23:40:37.788Z,11.67
2018-06-13T23:42:42.558Z,11.37
2018-06-13T23:44:47.185Z,12.70
2018-06-13T23:46:52.136Z,12.23
2018-06-13T23:48:56.836Z,12.77
2018-06-13T23:51:01.522Z,12.27
2018-06-13T23:53:06.743Z,12.73
2018-06-13T23:55:11.828Z,13.93
2018-06-13T23:57:17.075Z,13.00
2018-06-13T23:59:22.721Z,13.00
